createdAt,value
2024-01-20T00:00:45.788Z,13.73
2024-01-20T00:03:12.899Z,13.02
2024-01-20T00:05:40.171Z,16.15
2024-01-20T00:08:07.114Z,15.50
2024-01-20T00:10:34.922Z,17.27
2024-01-20T00:13:02.112Z,14.38
2024-01-20T00:15:29.080Z,18.30
2024-01-20T00:17:56.602Z,16.73
2024-01-20T00:20:23.762Z,17.98
2024-01-20T00:22:51.440Z,18.02
2024-01-20T00:25:18.544Z,17.55
2024-01-20T00:27:45.848Z,16.30
2024-01-20T00:30:13.459Z,13.35
2024-01-20T00:32:40.844Z,15.05
2024-01-20T00:35:08.893Z,11.57
2024-01-20T00:37:40.097Z,14.35
2024-01-20T00:40:08.367Z,11.95
2024-01-20T00:42:35.813Z,14.60
2024-01-20T00:45:03.985Z,15.05
2024-01-20T00:47:31.809Z,12.88
2024-01-20T00:49:59.225Z,14.43
2024-01-20T00:52:26.624Z,14.13
2024-01-20T00:54:53.647Z,13.52
2024-01-20T00:57:20.649Z,14.15
2024-01-20T00:59:48.048Z,15.50
2024-01-20T01:02:17.973Z,13.35
2024-01-20T01:04:45.725Z,12.75
2024-01-20T01:07:13.164Z,14.40
2024-01-20T01:09:40.106Z,15.40
2024-01-20T01:12:07.165Z,15.13
2024-01-20T01:14:34.416Z,16.45
2024-01-20T01:17:02.375Z,17.17
2024-01-20T01:19:29.437Z,16.40
2024-01-20T01:21:56.414Z,18.30
2024-01-20T01:24:23.335Z,20.15
2024-01-20T01:26:50.515Z,20.10
2024-01-20T01:29:18.324Z,17.48
2024-01-20T01:31:45.975Z,15.60
2024-01-20T01:34:13.299Z,15.70
2024-01-20T01:36:40.346Z,18.17
2024-01-20T01:39:07.560Z,19.52
2024-01-20T01:41:34.595Z,22.77
2024-01-20T01:44:02.209Z,20.38
2024-01-20T01:46:30.503Z,21.35
2024-01-20T01:48:58.452Z,22.02
2024-01-20T01:51:25.509Z,21.33
2024-01-20T01:53:53.129Z,19.33
2024-01-20T01:56:21.333Z,21.83
2024-01-20T01:58:48.460Z,22.23
2024-01-20T02:01:15.572Z,19.58
2024-01-20T02:03:42.968Z,19.75
2024-01-20T02:06:10.701Z,21.75
2024-01-20T02:08:40.702Z,21.05
2024-01-20T02:11:08.340Z,21.15
2024-01-20T02:13:35.902Z,19.00
2024-01-20T02:16:04.019Z,17.52
2024-01-20T02:18:31.497Z,21.80
2024-01-20T02:20:58.591Z,20.05
2024-01-20T02:23:26.206Z,23.58
2024-01-20T02:25:53.258Z,21.05
2024-01-20T02:28:20.205Z,18.63
2024-01-20T02:30:48.052Z,21.73
2024-01-20T02:33:15.324Z,20.75
2024-01-20T02:35:42.381Z,20.73
2024-01-20T02:38:09.391Z,18.58
2024-01-20T02:40:36.511Z,21.67
2024-01-20T02:43:03.640Z,18.55
2024-01-20T02:45:30.943Z,22.70
2024-01-20T02:47:59.232Z,18.98
2024-01-20T02:50:26.440Z,20.85
2024-01-20T02:52:53.915Z,18.45
2024-01-20T02:55:21.010Z,21.05
2024-01-20T02:57:48.077Z,20.00
2024-01-20T03:00:15.637Z,20.45
2024-01-20T03:02:42.946Z,19.15
2024-01-20T03:05:10.755Z,20.35
2024-01-20T03:07:37.764Z,23.45
2024-01-20T03:10:05.350Z,24.13
2024-01-20T03:12:32.628Z,22.42
2024-01-20T03:14:59.806Z,21.35
2024-01-20T03:17:26.770Z,21.67
2024-01-20T03:19:53.893Z,21.27
2024-01-20T03:22:20.865Z,21.90
2024-01-20T03:24:48.722Z,24.35
2024-01-20T03:27:19.372Z,23.20
2024-01-20T03:29:46.509Z,22.10
2024-01-20T03:32:13.881Z,21.88
2024-01-20T03:34:40.927Z,22.42
2024-01-20T03:37:08.593Z,20.55
2024-01-20T03:39:35.944Z,24.40
2024-01-20T03:42:03.006Z,21.17
2024-01-20T03:44:30.106Z,21.58
2024-01-20T03:46:57.211Z,20.85
2024-01-20T03:49:24.418Z,20.00
2024-01-20T03:51:51.576Z,23.25
2024-01-20T03:54:18.821Z,21.52
2024-01-20T03:56:45.914Z,22.15
2024-01-20T03:59:13.192Z,25.70
2024-01-20T04:01:40.879Z,24.67
2024-01-20T04:04:08.355Z,24.98
2024-01-20T04:06:35.565Z,22.77
2024-01-20T04:09:02.555Z,21.20
2024-01-20T04:11:29.552Z,20.67
2024-01-20T04:13:56.540Z,23.13
2024-01-20T04:16:23.503Z,23.23
2024-01-20T04:18:50.757Z,22.67
2024-01-20T04:21:17.859Z,20.85
2024-01-20T04:23:44.839Z,20.23
2024-01-20T04:26:11.760Z,22.85
2024-01-20T04:28:38.715Z,22.55
2024-01-20T04:31:05.720Z,24.38
2024-01-20T04:33:32.955Z,18.80
2024-01-20T04:36:00.036Z,19.83
2024-01-20T04:38:27.932Z,20.60
2024-01-20T04:40:55.000Z,22.25
2024-01-20T04:43:21.956Z,21.90
2024-01-20T04:45:49.003Z,21.92
2024-01-20T04:48:17.609Z,19.45
2024-01-20T04:50:44.713Z,21.88
2024-01-20T04:53:11.879Z,22.92
2024-01-20T04:55:39.198Z,29.55
2024-01-20T04:58:06.150Z,30.23
2024-01-20T05:00:33.684Z,29.77
2024-01-20T05:03:00.751Z,33.03
2024-01-20T05:05:27.736Z,36.25
2024-01-20T05:07:55.254Z,45.10
2024-01-20T05:10:22.252Z,38.63
2024-01-20T05:12:49.236Z,39.03
2024-01-20T05:15:16.532Z,43.30
2024-01-20T05:17:44.477Z,54.53
2024-01-20T05:20:15.891Z,81.88
2024-01-20T05:22:43.560Z,42.33
2024-01-20T05:25:10.954Z,33.92
2024-01-20T05:27:38.311Z,40.13
2024-01-20T05:30:06.514Z,44.50
2024-01-20T05:32:33.723Z,39.35
2024-01-20T05:35:01.064Z,44.22
2024-01-20T05:37:28.083Z,41.35
2024-01-20T05:39:55.000Z,45.47
2024-01-20T05:42:22.116Z,45.55
2024-01-20T05:44:49.115Z,42.63
2024-01-20T05:47:16.101Z,45.00
2024-01-20T05:49:43.100Z,41.03
2024-01-20T05:52:10.102Z,34.45
2024-01-20T05:54:37.306Z,32.50
2024-01-20T05:57:04.444Z,36.65
2024-01-20T05:59:31.490Z,41.58
2024-01-20T06:01:58.561Z,40.40
2024-01-20T06:04:25.684Z,49.25
2024-01-20T06:06:53.890Z,45.72
2024-01-20T06:09:20.930Z,45.45
2024-01-20T06:11:47.868Z,44.35
2024-01-20T06:14:14.996Z,43.47
2024-01-20T06:16:42.989Z,41.85
2024-01-20T06:19:10.599Z,46.38
2024-01-20T06:21:37.673Z,44.58
2024-01-20T06:24:05.259Z,47.22
2024-01-20T06:26:32.300Z,42.42
2024-01-20T06:28:59.254Z,41.65
2024-01-20T06:31:28.119Z,37.63
2024-01-20T06:33:56.025Z,54.05
2024-01-20T06:36:26.518Z,40.80
2024-01-20T06:38:54.535Z,34.03
2024-01-20T06:41:21.897Z,49.53
2024-01-20T06:43:49.020Z,58.60
2024-01-20T06:46:15.989Z,47.53
2024-01-20T06:48:43.204Z,45.90
2024-01-20T06:51:16.465Z,21.05
2024-01-20T06:53:44.961Z,23.55
2024-01-20T06:56:12.474Z,29.67
2024-01-20T06:58:40.285Z,24.20
2024-01-20T07:01:07.429Z,33.97
2024-01-20T07:03:34.795Z,41.05
2024-01-20T07:06:02.187Z,41.17
2024-01-20T07:08:29.459Z,41.67
2024-01-20T07:10:56.434Z,50.13
2024-01-20T07:13:23.360Z,48.13
2024-01-20T07:15:50.483Z,79.65
2024-01-20T07:18:17.982Z,62.53
2024-01-20T07:20:46.089Z,59.95
2024-01-20T07:23:13.073Z,53.30
2024-01-20T07:25:40.842Z,48.67
2024-01-20T07:28:08.212Z,58.35
2024-01-20T07:30:35.959Z,55.83
2024-01-20T07:33:03.563Z,51.67
2024-01-20T07:35:30.617Z,53.80
2024-01-20T07:37:57.778Z,60.75
2024-01-20T07:40:24.880Z,60.33
2024-01-20T07:42:51.955Z,53.30
2024-01-20T07:45:19.421Z,54.40
2024-01-20T07:47:48.451Z,50.22
2024-01-20T07:50:16.380Z,49.70
2024-01-20T07:52:43.484Z,51.35
2024-01-20T07:55:10.712Z,51.00
2024-01-20T07:57:38.211Z,51.88
2024-01-20T08:00:06.298Z,47.88
2024-01-20T08:02:35.376Z,52.78
2024-01-20T08:05:03.090Z,57.03
2024-01-20T08:07:30.720Z,53.25
2024-01-20T08:09:58.628Z,57.28
2024-01-20T08:12:25.963Z,56.90
2024-01-20T08:14:52.909Z,52.47
2024-01-20T08:17:21.189Z,50.72
2024-01-20T08:19:50.580Z,56.58
2024-01-20T08:22:18.981Z,56.25
2024-01-20T08:24:45.987Z,61.80
2024-01-20T08:27:13.425Z,51.13
2024-01-20T08:29:40.478Z,98.00
2024-01-20T08:32:07.709Z,105.43
2024-01-20T08:34:34.934Z,102.43
2024-01-20T08:37:10.614Z,84.18
2024-01-20T08:39:38.093Z,91.70
2024-01-20T08:42:09.701Z,68.90
2024-01-20T08:44:43.331Z,59.47
2024-01-20T08:47:16.266Z,75.70
2024-01-20T08:49:45.513Z,69.47
2024-01-20T08:52:18.597Z,61.90
2024-01-20T08:57:33.898Z,81.00
2024-01-20T09:00:08.734Z,82.53
2024-01-20T09:02:44.079Z,71.97
2024-01-20T09:05:17.927Z,56.45
2024-01-20T09:08:08.504Z,61.42
2024-01-20T09:10:42.227Z,54.28
2024-01-20T09:13:28.988Z,59.20
2024-01-20T09:16:01.731Z,64.68
2024-01-20T09:18:30.500Z,60.75
2024-01-20T09:21:03.939Z,66.32
2024-01-20T09:23:35.429Z,69.80
2024-01-20T09:26:08.443Z,68.05
2024-01-20T09:28:40.109Z,47.75
2024-01-20T09:31:30.299Z,61.55
2024-01-20T09:34:12.527Z,66.18
2024-01-20T09:36:45.681Z,61.42
2024-01-20T09:39:20.781Z,52.47
2024-01-20T09:41:58.700Z,61.45
2024-01-20T09:44:54.788Z,61.45
2024-01-20T09:47:37.157Z,62.88
2024-01-20T09:50:28.194Z,93.05
2024-01-20T09:53:32.415Z,86.70
2024-01-20T09:56:11.302Z,84.70
2024-01-20T09:59:04.542Z,83.32
2024-01-20T10:01:53.998Z,94.53
2024-01-20T10:04:54.612Z,65.55
2024-01-20T10:07:56.879Z,102.97
2024-01-20T10:10:24.025Z,93.95
2024-01-20T10:12:52.815Z,97.97
2024-01-20T10:15:24.068Z,102.90
2024-01-20T10:17:51.324Z,86.57
2024-01-20T10:20:22.812Z,87.07
2024-01-20T10:22:50.575Z,89.32
2024-01-20T10:25:21.766Z,99.43
2024-01-20T10:27:50.143Z,106.57
2024-01-20T10:30:21.018Z,90.35
2024-01-20T10:33:04.049Z,69.78
2024-01-20T10:35:36.443Z,80.80
2024-01-20T10:38:10.396Z,96.70
2024-01-20T10:40:41.569Z,86.57
2024-01-20T10:43:18.243Z,81.82
2024-01-20T10:45:54.348Z,75.97
2024-01-20T10:48:28.510Z,69.95
2024-01-20T10:51:01.213Z,57.35
2024-01-20T10:53:29.080Z,65.53
2024-01-20T10:55:57.359Z,58.83
2024-01-20T10:58:41.134Z,60.95
2024-01-20T11:01:09.755Z,46.08
2024-01-20T11:03:37.767Z,66.18
2024-01-20T11:06:05.299Z,53.00
2024-01-20T11:08:32.673Z,49.22
2024-01-20T11:11:01.160Z,52.15
2024-01-20T11:13:28.286Z,43.40
2024-01-20T11:15:58.811Z,49.38
2024-01-20T11:18:29.237Z,41.70
2024-01-20T11:21:04.965Z,37.80
2024-01-20T11:23:32.235Z,36.83
2024-01-20T11:26:10.408Z,40.17
2024-01-20T11:28:37.994Z,43.22
2024-01-20T11:31:05.114Z,47.40
2024-01-20T11:33:32.825Z,47.85
2024-01-20T11:36:01.436Z,56.00
2024-01-20T11:38:29.966Z,53.55
2024-01-20T11:41:00.996Z,53.33
2024-01-20T11:43:28.583Z,50.42
2024-01-20T11:45:56.807Z,59.88
2024-01-20T11:48:24.608Z,48.92
2024-01-20T11:50:52.600Z,53.88
2024-01-20T11:53:21.923Z,51.92
2024-01-20T11:56:03.061Z,59.50
2024-01-20T11:58:34.190Z,56.83
2024-01-20T12:01:04.743Z,57.22
2024-01-20T12:03:32.015Z,52.65
2024-01-20T12:06:11.910Z,61.28
2024-01-20T12:08:45.997Z,61.25
2024-01-20T12:11:20.815Z,58.27
2024-01-20T12:13:48.579Z,61.13
2024-01-20T12:16:17.706Z,66.88
2024-01-20T12:18:45.174Z,60.67
2024-01-20T12:21:12.357Z,63.63
2024-01-20T12:23:39.802Z,63.97
2024-01-20T12:26:14.344Z,70.80
2024-01-20T12:28:43.674Z,59.53
2024-01-20T12:31:12.355Z,70.47
2024-01-20T12:33:43.497Z,55.28
2024-01-20T12:36:12.012Z,54.35
2024-01-20T12:38:39.391Z,60.25
2024-01-20T12:41:06.380Z,61.25
2024-01-20T12:43:33.799Z,64.82
2024-01-20T12:46:00.970Z,69.25
2024-01-20T12:48:28.444Z,63.30
2024-01-20T12:50:56.508Z,62.22
2024-01-20T12:53:23.597Z,65.45
2024-01-20T12:55:50.765Z,66.93
2024-01-20T12:58:17.926Z,71.68
2024-01-20T13:00:45.453Z,66.75
2024-01-20T13:03:12.619Z,72.00
2024-01-20T13:05:40.014Z,61.97
2024-01-20T13:08:07.313Z,65.97
2024-01-20T13:10:34.286Z,62.65
2024-01-20T13:13:01.353Z,68.57
2024-01-20T13:15:28.648Z,70.03
2024-01-20T13:17:56.283Z,71.07
2024-01-20T13:20:23.521Z,66.65
2024-01-20T13:22:50.684Z,75.80
2024-01-20T13:25:17.764Z,71.95
2024-01-20T13:27:44.809Z,71.40
2024-01-20T13:30:13.009Z,72.38
2024-01-20T13:32:40.908Z,84.80
2024-01-20T13:35:10.630Z,67.85
2024-01-20T13:37:37.969Z,59.90
2024-01-20T13:40:09.571Z,59.03
2024-01-20T13:42:37.681Z,61.95
2024-01-20T13:45:07.044Z,61.08
2024-01-20T13:47:34.686Z,59.67
2024-01-20T13:50:01.857Z,65.20
2024-01-20T13:52:29.308Z,69.95
2024-01-20T13:54:56.806Z,60.60
2024-01-20T13:57:25.799Z,57.30
2024-01-20T13:59:53.002Z,52.92
2024-01-20T14:02:20.138Z,52.65
2024-01-20T14:04:47.625Z,52.92
2024-01-20T14:07:14.788Z,59.10
2024-01-20T14:09:42.968Z,54.30
2024-01-20T14:12:10.394Z,56.80
2024-01-20T14:14:41.154Z,53.53
2024-01-20T14:17:08.419Z,60.72
2024-01-20T14:19:35.537Z,62.08
2024-01-20T14:22:02.662Z,57.47
2024-01-20T14:24:29.766Z,58.83
2024-01-20T14:26:57.112Z,59.03
2024-01-20T14:29:24.210Z,65.10
2024-01-20T14:31:52.746Z,64.80
2024-01-20T14:34:21.076Z,63.95
2024-01-20T14:36:49.815Z,68.40
2024-01-20T14:39:19.850Z,66.72
2024-01-20T14:41:47.080Z,72.28
2024-01-20T14:44:14.830Z,67.55
2024-01-20T14:46:42.478Z,69.20
2024-01-20T14:49:10.139Z,67.28
2024-01-20T14:51:37.578Z,65.90
2024-01-20T14:54:05.789Z,67.07
2024-01-20T14:56:37.239Z,63.70
2024-01-20T14:59:04.672Z,64.05
2024-01-20T15:01:32.602Z,71.55
2024-01-20T15:04:00.228Z,78.35
2024-01-20T15:06:28.347Z,77.82
2024-01-20T15:08:55.607Z,65.18
2024-01-20T15:11:23.500Z,67.07
2024-01-20T15:13:50.989Z,71.68
2024-01-20T15:16:18.438Z,76.32
2024-01-20T15:18:45.919Z,82.03
2024-01-20T15:21:13.555Z,78.03
2024-01-20T15:23:40.741Z,83.82
2024-01-20T15:26:07.883Z,81.97
2024-01-20T15:28:35.238Z,79.65
2024-01-20T15:31:02.674Z,82.10
2024-01-20T15:33:30.252Z,84.40
2024-01-20T15:35:57.676Z,80.25
2024-01-20T15:38:24.685Z,81.47
2024-01-20T15:40:56.583Z,74.25
2024-01-20T15:43:24.080Z,77.57
2024-01-20T15:45:51.155Z,79.07
2024-01-20T15:48:18.252Z,74.95
2024-01-20T15:50:45.370Z,80.03
2024-01-20T15:53:12.481Z,85.57
2024-01-20T15:55:39.336Z,86.05
2024-01-20T15:58:06.416Z,89.88
2024-01-20T16:00:35.283Z,91.45
2024-01-20T16:03:05.929Z,99.63
2024-01-20T16:05:33.701Z,96.93
2024-01-20T16:08:00.766Z,114.45
2024-01-20T16:10:27.731Z,117.13
2024-01-20T16:12:54.829Z,105.70
2024-01-20T16:15:21.981Z,116.95
2024-01-20T16:17:49.156Z,109.93
2024-01-20T16:20:16.243Z,113.85
2024-01-20T16:22:46.276Z,112.50
2024-01-20T16:25:13.829Z,109.43
2024-01-20T16:27:41.029Z,110.35
2024-01-20T16:30:08.891Z,115.25
2024-01-20T16:32:36.262Z,109.65
2024-01-20T16:35:05.024Z,104.40
2024-01-20T16:37:32.073Z,128.93
2024-01-20T16:40:01.600Z,144.73
2024-01-20T16:42:29.054Z,140.65
2024-01-20T16:44:57.158Z,189.07
2024-01-20T16:47:27.102Z,156.85
2024-01-20T16:49:55.365Z,136.15
2024-01-20T16:52:22.385Z,147.05
2024-01-20T16:54:50.313Z,156.82
2024-01-20T16:57:17.557Z,153.02
2024-01-20T16:59:44.497Z,162.15
2024-01-20T17:02:11.461Z,222.82
2024-01-20T17:04:38.627Z,285.17
2024-01-20T17:07:06.397Z,158.93
2024-01-20T17:09:34.066Z,227.70
2024-01-20T17:12:01.381Z,132.55
2024-01-20T17:14:28.420Z,129.02
2024-01-20T17:16:55.594Z,151.60
2024-01-20T17:19:22.656Z,154.77
2024-01-20T17:21:49.691Z,141.88
2024-01-20T17:24:17.863Z,137.70
2024-01-20T17:26:44.978Z,160.93
2024-01-20T17:29:11.848Z,202.48
2024-01-20T17:31:39.402Z,161.77
2024-01-20T17:34:06.612Z,198.55
2024-01-20T17:36:33.940Z,204.55
2024-01-20T17:39:05.208Z,187.50
2024-01-20T17:41:33.179Z,166.13
2024-01-20T17:44:00.268Z,178.50
2024-01-20T17:46:27.418Z,273.80
2024-01-20T17:48:54.602Z,203.93
2024-01-20T17:51:22.172Z,172.95
2024-01-20T17:53:49.123Z,160.90
2024-01-20T17:56:16.668Z,248.73
2024-01-20T17:58:43.569Z,191.10
2024-01-20T18:01:12.047Z,182.90
2024-01-20T18:03:40.596Z,158.57
2024-01-20T18:06:09.181Z,166.65
2024-01-20T18:08:36.446Z,167.32
2024-01-20T18:11:03.950Z,158.63
2024-01-20T18:13:31.025Z,161.82
2024-01-20T18:16:01.074Z,152.70
2024-01-20T18:18:28.102Z,151.55
2024-01-20T18:20:55.220Z,152.45
2024-01-20T18:23:22.829Z,140.88
2024-01-20T18:25:49.789Z,151.95
2024-01-20T18:28:18.891Z,171.15
2024-01-20T18:30:46.518Z,135.63
2024-01-20T18:33:14.052Z,148.93
2024-01-20T18:35:41.207Z,139.00
2024-01-20T18:38:08.449Z,143.13
2024-01-20T18:40:35.603Z,164.50
2024-01-20T18:43:02.751Z,158.73
2024-01-20T18:45:30.133Z,184.70
2024-01-20T18:47:57.580Z,160.05
2024-01-20T18:50:24.678Z,164.20
2024-01-20T18:52:51.667Z,135.50
2024-01-20T18:55:18.752Z,123.38
2024-01-20T18:57:45.821Z,137.80
2024-01-20T19:00:13.766Z,149.90
2024-01-20T19:02:40.832Z,153.68
2024-01-20T19:05:07.998Z,104.00
2024-01-20T19:07:35.802Z,153.68
2024-01-20T19:10:03.735Z,133.52
2024-01-20T19:12:30.720Z,119.63
2024-01-20T19:15:01.001Z,125.90
2024-01-20T19:17:29.325Z,125.60
2024-01-20T19:19:56.315Z,111.95
2024-01-20T19:22:23.818Z,117.10
2024-01-20T19:24:51.217Z,135.13
2024-01-20T19:27:18.258Z,126.70
2024-01-20T19:29:45.280Z,134.13
2024-01-20T19:32:12.280Z,145.18
2024-01-20T19:34:39.496Z,147.32
2024-01-20T19:37:06.570Z,183.63
2024-01-20T19:39:36.923Z,140.38
2024-01-20T19:42:04.485Z,228.38
2024-01-20T19:44:31.521Z,139.98
2024-01-20T19:46:58.466Z,179.48
2024-01-20T19:49:25.870Z,236.80
2024-01-20T19:51:53.063Z,173.88
2024-01-20T19:54:20.872Z,171.10
2024-01-20T19:56:48.076Z,262.45
2024-01-20T19:59:16.827Z,198.70
2024-01-20T20:01:45.536Z,139.30
2024-01-20T20:04:17.299Z,158.70
2024-01-20T20:06:51.981Z,145.15
2024-01-20T20:09:21.358Z,150.07
2024-01-20T20:11:48.494Z,147.90
2024-01-20T20:14:18.434Z,138.13
2024-01-20T20:16:45.495Z,196.18
2024-01-20T20:19:13.962Z,153.73
2024-01-20T20:21:41.514Z,132.52
2024-01-20T20:24:09.810Z,161.23
2024-01-20T20:26:41.994Z,125.40
2024-01-20T20:29:12.751Z,170.05
2024-01-20T20:31:40.556Z,138.15
2024-01-20T20:34:08.786Z,130.63
2024-01-20T20:36:36.003Z,154.32
2024-01-20T20:39:03.272Z,151.02
2024-01-20T20:41:30.698Z,170.05
2024-01-20T20:43:58.100Z,140.90
2024-01-20T20:46:25.387Z,122.85
2024-01-20T20:48:52.855Z,126.43
2024-01-20T20:51:20.035Z,137.45
2024-01-20T20:53:47.042Z,131.77
2024-01-20T20:56:14.519Z,135.75
2024-01-20T20:58:43.868Z,171.43
2024-01-20T21:01:24.457Z,117.43
2024-01-20T21:04:06.090Z,184.85
2024-01-20T21:09:29.953Z,166.85
2024-01-20T21:12:31.706Z,151.68
2024-01-20T21:15:05.313Z,133.60
2024-01-20T21:17:41.423Z,125.25
2024-01-20T21:20:36.628Z,109.63
2024-01-20T21:23:37.109Z,136.02
2024-01-20T21:29:08.471Z,105.38
2024-01-20T21:31:51.872Z,156.70
2024-01-20T21:34:54.282Z,123.45
2024-01-20T21:37:42.528Z,162.10
2024-01-20T21:46:13.502Z,175.73
2024-01-20T21:49:06.222Z,119.68
2024-01-20T21:52:11.862Z,184.20
2024-01-20T21:55:06.599Z,171.93
2024-01-20T21:57:59.970Z,178.35
2024-01-20T22:00:53.526Z,235.40
2024-01-20T22:03:59.380Z,138.07
2024-01-20T22:06:51.993Z,123.68
2024-01-20T22:10:00.526Z,146.38
2024-01-20T22:12:52.013Z,114.60
2024-01-20T22:15:37.346Z,152.65
2024-01-20T22:18:04.504Z,122.43
2024-01-20T22:20:33.694Z,122.00
2024-01-20T22:23:00.791Z,163.40
2024-01-20T22:25:28.337Z,148.50
2024-01-20T22:27:56.583Z,147.35
2024-01-20T22:30:24.245Z,134.02
2024-01-20T22:32:54.023Z,153.55
2024-01-20T22:35:21.299Z,121.93
2024-01-20T22:37:48.599Z,114.40
2024-01-20T22:40:15.961Z,116.45
2024-01-20T22:42:42.983Z,126.57
2024-01-20T22:45:12.450Z,103.93
2024-01-20T22:47:44.662Z,139.48
2024-01-20T22:50:13.238Z,115.47
2024-01-20T22:52:43.521Z,138.27
2024-01-20T22:55:10.688Z,148.05
2024-01-20T22:57:38.962Z,125.30
2024-01-20T23:00:14.118Z,101.55
2024-01-20T23:02:43.422Z,81.32
2024-01-20T23:05:10.659Z,82.57
2024-01-20T23:07:41.214Z,76.60
2024-01-20T23:10:09.363Z,70.75
2024-01-20T23:12:37.191Z,124.95
2024-01-20T23:15:05.318Z,98.13
2024-01-20T23:17:33.587Z,126.30
2024-01-20T23:20:00.704Z,101.70
2024-01-20T23:22:28.280Z,82.68
2024-01-20T23:24:55.439Z,67.82
2024-01-20T23:27:22.510Z,117.00
2024-01-20T23:29:49.452Z,129.93
2024-01-20T23:32:16.657Z,110.72
2024-01-20T23:34:44.010Z,82.93
2024-01-20T23:37:11.200Z,81.13
2024-01-20T23:39:38.140Z,79.63
2024-01-20T23:42:05.791Z,85.22
2024-01-20T23:44:33.253Z,69.22
2024-01-20T23:47:01.283Z,64.97
2024-01-20T23:49:28.279Z,82.38
2024-01-20T23:51:56.083Z,113.43
2024-01-20T23:54:23.250Z,79.40
2024-01-20T23:56:50.255Z,120.53
2024-01-20T23:59:17.908Z,86.10
